createdAt,value
2017-09-16T00:00:51.776Z,43.38
2017-09-16T00:02:00.789Z,43.48
2017-09-16T00:03:09.804Z,43.38
2017-09-16T00:04:19.142Z,43.48
2017-09-16T00:05:28.158Z,43.29
2017-09-16T00:06:37.492Z,43.48
2017-09-16T00:07:46.821Z,43.29
2017-09-16T00:08:55.837Z,43.19
2017-09-16T00:10:05.170Z,43.1
2017-09-16T00:11:13.864Z,43.19
2017-09-16T00:12:22.878Z,43.29
2017-09-16T00:13:32.215Z,43.29
2017-09-16T00:14:41.869Z,43.29
2017-09-16T00:15:50.882Z,43.38
2017-09-16T00:16:59.901Z,43.48
2017-09-16T00:18:09.558Z,43.29
2017-09-16T00:19:18.893Z,43.38
2017-09-16T00:20:28.228Z,43.48
2017-09-16T00:21:37.246Z,43.58
2017-09-16T00:22:45.948Z,43.87
2017-09-16T00:23:55.605Z,43.38
2017-09-16T00:25:05.259Z,43.77
2017-09-16T00:26:14.278Z,43.87
2017-09-16T00:27:23.296Z,43.29
2017-09-16T00:28:32.633Z,43.87
2017-09-16T00:29:41.648Z,43.48
2017-09-16T00:30:50.663Z,43.77
2017-09-16T00:32:00.008Z,43.77
2017-09-16T00:33:09.026Z,43.48
2017-09-16T00:34:18.045Z,43.48
2017-09-16T00:35:27.058Z,43.87
2017-09-16T00:36:35.754Z,43.58
2017-09-16T00:37:44.773Z,43.67
2017-09-16T00:38:54.110Z,43.58
2017-09-16T00:40:03.764Z,43.38
2017-09-16T00:41:12.780Z,43.58
2017-09-16T00:42:22.434Z,43.87
2017-09-16T00:43:31.453Z,43.67
2017-09-16T00:44:40.786Z,43.58
2017-09-16T00:45:49.480Z,43.67
2017-09-16T00:46:58.174Z,43.87
2017-09-16T00:48:06.868Z,43.67
2017-09-16T00:49:15.882Z,43.96
2017-09-16T00:50:24.576Z,43.96
2017-09-16T00:51:33.588Z,43.87
2017-09-16T00:52:42.925Z,43.96
2017-09-16T00:53:51.938Z,43.67
2017-09-16T00:55:01.278Z,43.96
2017-09-16T00:56:10.930Z,43.67
2017-09-16T00:57:20.263Z,43.87
2017-09-16T00:58:29.281Z,43.87
2017-09-16T00:59:38.612Z,43.67
2017-09-16T01:00:47.956Z,43.87
2017-09-16T01:01:57.614Z,43.77
2017-09-16T01:03:06.310Z,43.67
2017-09-16T01:04:15.005Z,43.77
2017-09-16T01:05:24.022Z,43.77
2017-09-16T01:06:32.723Z,43.77
2017-09-16T01:07:42.372Z,43.58
2017-09-16T01:08:51.390Z,43.58
2017-09-16T01:10:00.722Z,43.77
2017-09-16T01:11:09.737Z,43.58
2017-09-16T01:12:19.711Z,43.58
2017-09-16T01:13:29.045Z,43.58
2017-09-16T01:14:38.091Z,43.58
2017-09-16T01:15:47.104Z,43.77
2017-09-16T01:16:56.440Z,44.15
2017-09-16T01:18:05.461Z,43.96
2017-09-16T01:19:15.114Z,44.15
2017-09-16T01:20:24.157Z,44.06
2017-09-16T01:21:33.833Z,44.06
2017-09-16T01:22:43.167Z,44.15
2017-09-16T01:23:52.496Z,43.87
2017-09-16T01:25:02.147Z,44.06
2017-09-16T01:26:11.808Z,44.15
2017-09-16T01:27:20.504Z,44.15
2017-09-16T01:28:29.517Z,43.67
2017-09-16T01:29:39.172Z,44.06
2017-09-16T01:30:47.870Z,44.04
2017-09-16T01:31:56.889Z,43.67
2017-09-16T01:33:06.225Z,43.55
2017-09-16T01:34:15.882Z,43.55
2017-09-16T01:35:25.217Z,44.04
2017-09-16T01:36:34.554Z,43.65
2017-09-16T01:37:43.892Z,44.04
2017-09-16T01:38:53.546Z,43.55
2017-09-16T01:40:03.518Z,44.04
2017-09-16T01:41:12.533Z,43.65
2017-09-16T01:42:21.550Z,43.65
2017-09-16T01:43:30.564Z,43.55
2017-09-16T01:44:39.579Z,43.65
2017-09-16T01:45:48.595Z,43.65
2017-09-16T01:46:57.612Z,43.65
2017-09-16T01:48:06.945Z,43.65
2017-09-16T01:49:15.640Z,44.04
2017-09-16T01:50:24.974Z,43.55
2017-09-16T01:51:34.307Z,43.55
2017-09-16T01:52:43.004Z,43.75
2017-09-16T01:53:52.017Z,43.46
2017-09-16T01:55:01.352Z,43.75
2017-09-16T01:56:10.685Z,44.04
2017-09-16T01:57:20.016Z,43.75
2017-09-16T01:58:28.714Z,43.85
2017-09-16T01:59:37.409Z,43.85
2017-09-16T02:00:46.745Z,43.75
2017-09-16T02:01:55.762Z,43.37
2017-09-16T02:03:04.779Z,43.75
2017-09-16T02:04:14.428Z,43.75
2017-09-16T02:05:23.122Z,43.75
2017-09-16T02:06:31.817Z,43.65
2017-09-16T02:07:41.152Z,43.65
2017-09-16T02:08:49.845Z,43.75
2017-09-16T02:09:59.199Z,43.75
2017-09-16T02:11:08.532Z,43.75
2017-09-16T02:12:17.548Z,43.75
2017-09-16T02:13:27.198Z,43.85
2017-09-16T02:14:35.894Z,43.75
2017-09-16T02:15:45.548Z,43.94
2017-09-16T02:16:54.886Z,43.75
2017-09-16T02:18:03.581Z,43.85
2017-09-16T02:19:12.595Z,43.94
2017-09-16T02:20:21.292Z,44.04
2017-09-16T02:21:30.946Z,43.75
2017-09-16T02:22:39.965Z,43.85
2017-09-16T02:23:49.932Z,43.94
2017-09-16T02:24:59.265Z,43.75
2017-09-16T02:26:08.601Z,43.94
2017-09-16T02:27:17.938Z,43.94
2017-09-16T02:28:26.952Z,43.94
2017-09-16T02:29:35.965Z,43.65
2017-09-16T02:30:45.305Z,43.94
2017-09-16T02:31:54.001Z,43.94
2017-09-16T02:33:04.014Z,43.75
2017-09-16T02:34:13.647Z,43.85
2017-09-16T02:35:22.663Z,43.85
2017-09-16T02:36:31.996Z,43.75
2017-09-16T02:37:41.015Z,43.85
2017-09-16T02:38:50.360Z,43.94
2017-09-16T02:39:59.371Z,43.94
2017-09-16T02:41:08.705Z,44.13
2017-09-16T02:42:18.045Z,43.75
2017-09-16T02:43:27.382Z,43.94
2017-09-16T02:44:36.079Z,43.85
2017-09-16T02:45:45.091Z,43.85
2017-09-16T02:46:54.106Z,43.75
2017-09-16T02:48:03.120Z,43.65
2017-09-16T02:49:11.814Z,43.85
2017-09-16T02:50:21.151Z,43.85
2017-09-16T02:51:29.848Z,43.65
2017-09-16T02:52:38.864Z,44.13
2017-09-16T02:53:47.879Z,43.85
2017-09-16T02:54:57.216Z,44.52
2017-09-16T02:56:06.233Z,44.23
2017-09-16T02:57:15.576Z,43.65
2017-09-16T02:58:24.269Z,43.85
2017-09-16T02:59:32.967Z,43.85
2017-09-16T03:00:41.982Z,43.85
2017-09-16T03:01:51.634Z,43.85
2017-09-16T03:03:00.650Z,43.65
2017-09-16T03:04:09.666Z,44.04
2017-09-16T03:05:19.316Z,43.85
2017-09-16T03:06:28.648Z,43.65
2017-09-16T03:07:37.342Z,43.85
2017-09-16T03:08:46.036Z,43.85
2017-09-16T03:09:55.369Z,44.13
2017-09-16T03:11:04.708Z,44.13
2017-09-16T03:12:13.721Z,44.04
2017-09-16T03:13:22.731Z,43.65
2017-09-16T03:14:31.745Z,43.85
2017-09-16T03:15:41.078Z,43.94
2017-09-16T03:16:50.093Z,43.94
2017-09-16T03:17:59.106Z,44.42
2017-09-16T03:19:08.120Z,43.75
2017-09-16T03:20:17.136Z,43.75
2017-09-16T03:21:26.468Z,44.13
2017-09-16T03:22:36.135Z,43.85
2017-09-16T03:23:45.467Z,43.65
2017-09-16T03:24:54.486Z,44.23
2017-09-16T03:26:03.498Z,43.85
2017-09-16T03:27:12.833Z,43.65
2017-09-16T03:28:22.169Z,43.75
2017-09-16T03:29:30.863Z,44.13
2017-09-16T03:30:40.520Z,43.65
2017-09-16T03:31:50.186Z,43.75
2017-09-16T03:32:58.880Z,43.65
2017-09-16T03:34:08.214Z,43.75
2017-09-16T03:35:17.548Z,43.85
2017-09-16T03:36:27.203Z,43.85
2017-09-16T03:37:37.177Z,43.85
2017-09-16T03:38:46.512Z,44.13
2017-09-16T03:39:55.527Z,43.85
2017-09-16T03:41:05.179Z,43.65
2017-09-16T03:42:13.875Z,44.13
2017-09-16T03:43:22.887Z,43.85
2017-09-16T03:44:32.229Z,43.85
2017-09-16T03:45:41.563Z,44.23
2017-09-16T03:46:50.576Z,43.65
2017-09-16T03:47:59.590Z,43.94
2017-09-16T03:49:09.245Z,43.94
2017-09-16T03:50:18.257Z,43.65
2017-09-16T03:51:26.962Z,43.75
2017-09-16T03:52:35.646Z,43.75
2017-09-16T03:53:45.309Z,43.65
2017-09-16T03:54:54.964Z,43.37
2017-09-16T03:56:04.309Z,44.04
2017-09-16T03:57:13.001Z,44.13
2017-09-16T03:58:21.695Z,43.75
2017-09-16T03:59:31.348Z,43.65
2017-09-16T04:00:40.685Z,43.75
2017-09-16T04:01:49.699Z,43.75
2017-09-16T04:02:58.396Z,43.55
2017-09-16T04:04:08.052Z,43.75
2017-09-16T04:05:17.066Z,43.55
2017-09-16T04:06:26.721Z,43.75
2017-09-16T04:07:35.738Z,43.75
2017-09-16T04:08:44.432Z,43.85
2017-09-16T04:09:53.447Z,43.65
2017-09-16T04:11:02.463Z,43.75
2017-09-16T04:12:11.476Z,43.75
2017-09-16T04:13:20.493Z,43.85
2017-09-16T04:14:29.831Z,43.55
2017-09-16T04:15:39.163Z,43.94
2017-09-16T04:16:47.859Z,43.94
2017-09-16T04:17:56.873Z,43.65
2017-09-16T04:19:05.888Z,43.94
2017-09-16T04:20:15.221Z,43.75
2017-09-16T04:21:24.553Z,43.65
2017-09-16T04:22:33.249Z,43.85
2017-09-16T04:23:42.264Z,43.55
2017-09-16T04:24:51.601Z,43.46
2017-09-16T04:26:01.257Z,43.65
2017-09-16T04:27:09.953Z,43.65
2017-09-16T04:28:18.966Z,43.37
2017-09-16T04:29:27.661Z,43.27
2017-09-16T04:30:36.684Z,43.37
2017-09-16T04:31:45.700Z,43.37
2017-09-16T04:32:54.398Z,43.37
2017-09-16T04:34:04.062Z,43.07
2017-09-16T04:35:13.077Z,43.07
2017-09-16T04:36:21.773Z,43.46
2017-09-16T04:37:30.786Z,43.46
2017-09-16T04:38:40.118Z,43.46
2017-09-16T04:39:49.455Z,43.46
2017-09-16T04:40:59.428Z,43.46
2017-09-16T04:42:08.444Z,43.46
2017-09-16T04:43:17.147Z,43.37
2017-09-16T04:44:27.124Z,43.46
2017-09-16T04:45:36.138Z,43.37
2017-09-16T04:46:45.471Z,43.27
2017-09-16T04:47:54.490Z,43.46
2017-09-16T04:49:03.822Z,43.37
2017-09-16T04:50:12.518Z,43.27
2017-09-16T04:51:22.171Z,43.55
2017-09-16T04:52:31.186Z,43.37
2017-09-16T04:53:40.519Z,43.27
2017-09-16T04:54:49.851Z,43.37
2017-09-16T04:55:58.868Z,43.46
2017-09-16T04:57:08.202Z,43.27
2017-09-16T04:58:17.219Z,43.27
2017-09-16T04:59:26.556Z,43.37
2017-09-16T05:00:36.854Z,43.17
2017-09-16T05:01:45.548Z,43.17
2017-09-16T05:02:55.211Z,43.37
2017-09-16T05:04:04.226Z,43.27
2017-09-16T05:05:13.562Z,43.37
2017-09-16T05:06:22.576Z,42.97
2017-09-16T05:07:31.590Z,42.97
2017-09-16T05:08:40.606Z,43.17
2017-09-16T05:09:49.629Z,43.17
2017-09-16T05:10:58.642Z,43.27
2017-09-16T05:12:08.018Z,42.88
2017-09-16T05:13:17.383Z,43.27
2017-09-16T05:14:26.722Z,43.27
2017-09-16T05:15:35.418Z,43.19
2017-09-16T05:16:44.434Z,43
2017-09-16T05:17:53.128Z,42.97
2017-09-16T05:19:02.779Z,42.88
2017-09-16T05:20:12.762Z,43.1
2017-09-16T05:21:22.740Z,43.1
2017-09-16T05:22:32.075Z,43.07
2017-09-16T05:23:41.092Z,43
2017-09-16T05:24:50.429Z,42.9
2017-09-16T05:25:59.770Z,43
2017-09-16T05:27:08.791Z,43.1
2017-09-16T05:28:17.808Z,43
2017-09-16T05:29:26.503Z,42.9
2017-09-16T05:30:36.161Z,42.8
2017-09-16T05:31:45.495Z,42.8
2017-09-16T05:32:54.509Z,43.19
2017-09-16T05:34:03.843Z,42.8
2017-09-16T05:35:12.857Z,42.9
2017-09-16T05:36:21.872Z,42.9
2017-09-16T05:37:31.526Z,43.1
2017-09-16T05:38:40.859Z,42.61
2017-09-16T05:39:49.556Z,42.8
2017-09-16T05:40:59.539Z,42.9
2017-09-16T05:42:08.555Z,42.71
2017-09-16T05:43:17.570Z,42.9
2017-09-16T05:44:26.904Z,42.71
2017-09-16T05:45:36.596Z,42.9
2017-09-16T05:46:45.291Z,42.9
2017-09-16T05:47:54.624Z,42.71
2017-09-16T05:49:03.970Z,43
2017-09-16T05:50:12.985Z,43.1
2017-09-16T05:51:22.322Z,42.71
2017-09-16T05:52:31.021Z,42.8
2017-09-16T05:53:40.040Z,42.8
2017-09-16T05:54:49.375Z,42.52
2017-09-16T05:55:58.719Z,42.71
2017-09-16T05:57:07.415Z,42.8
2017-09-16T05:58:16.110Z,42.71
2017-09-16T05:59:25.124Z,42.71
2017-09-16T06:00:34.460Z,42.8
2017-09-16T06:01:43.794Z,42.71
2017-09-16T06:02:52.492Z,42.9
2017-09-16T06:04:01.508Z,42.9
2017-09-16T06:05:10.522Z,42.23
2017-09-16T06:06:19.856Z,43
2017-09-16T06:07:28.873Z,42.42
2017-09-16T06:08:38.207Z,42.52
2017-09-16T06:09:46.902Z,42.13
2017-09-16T06:10:56.235Z,42.54
2017-09-16T06:12:05.251Z,42.52
2017-09-16T06:13:14.588Z,42.44
2017-09-16T06:14:23.286Z,42.52
2017-09-16T06:15:32.945Z,42.23
2017-09-16T06:16:41.640Z,42.35
2017-09-16T06:17:50.657Z,42.05
2017-09-16T06:18:59.675Z,42.13
2017-09-16T06:20:08.687Z,42.15
2017-09-16T06:21:18.023Z,42.05
2017-09-16T06:22:27.997Z,41.77
2017-09-16T06:23:36.690Z,41.96
2017-09-16T06:24:46.025Z,41.67
2017-09-16T06:25:55.362Z,41.67
2017-09-16T06:27:04.696Z,41.57
2017-09-16T06:28:13.710Z,41.57
2017-09-16T06:29:22.725Z,41.38
2017-09-16T06:30:32.062Z,41.57
2017-09-16T06:31:41.402Z,41.96
2017-09-16T06:32:50.740Z,41.77
2017-09-16T06:33:59.754Z,41.57
2017-09-16T06:35:09.088Z,41.19
2017-09-16T06:36:17.785Z,41.28
2017-09-16T06:37:27.436Z,41.28
2017-09-16T06:38:36.450Z,41.38
2017-09-16T06:39:45.145Z,41.57
2017-09-16T06:40:54.161Z,41.48
2017-09-16T06:42:03.175Z,41.38
2017-09-16T06:43:12.831Z,41.09
2017-09-16T06:44:22.485Z,41.09
2017-09-16T06:45:32.141Z,40.8
2017-09-16T06:46:41.474Z,40.44
2017-09-16T06:47:50.488Z,40.92
2017-09-16T06:48:59.831Z,40.44
2017-09-16T06:50:08.849Z,40.53
2017-09-16T06:51:17.552Z,40.53
2017-09-16T06:52:26.568Z,40.44
2017-09-16T06:53:35.581Z,40.24
2017-09-16T06:54:45.552Z,40.24
2017-09-16T06:55:54.895Z,40.24
2017-09-16T06:57:04.232Z,40.24
2017-09-16T06:58:13.566Z,40.63
2017-09-16T06:59:22.583Z,40.63
2017-09-16T07:00:31.919Z,40.34
2017-09-16T07:01:40.934Z,40.05
2017-09-16T07:02:50.915Z,39.76
2017-09-16T07:03:59.936Z,39.86
2017-09-16T07:05:09.270Z,40.24
2017-09-16T07:06:18.605Z,39.97
2017-09-16T07:07:27.618Z,40.36
2017-09-16T07:08:36.956Z,39.97
2017-09-16T07:09:46.292Z,39.97
2017-09-16T07:10:55.947Z,39.86
2017-09-16T07:12:04.961Z,40.07
2017-09-16T07:13:13.973Z,39.69
2017-09-16T07:14:22.673Z,39.69
2017-09-16T07:15:31.695Z,39.69
2017-09-16T07:16:41.033Z,39.78
2017-09-16T07:17:49.731Z,39.87
2017-09-16T07:18:58.425Z,39.59
2017-09-16T07:20:08.079Z,39.49
2017-09-16T07:21:16.775Z,39.69
2017-09-16T07:22:25.797Z,39.78
2017-09-16T07:23:34.810Z,39.59
2017-09-16T07:24:44.467Z,39.49
2017-09-16T07:25:53.162Z,39.49
2017-09-16T07:27:02.177Z,39.59
2017-09-16T07:28:11.194Z,39.29
2017-09-16T07:29:20.212Z,39.29
2017-09-16T07:30:29.554Z,38.83
2017-09-16T07:31:38.889Z,38.74
2017-09-16T07:32:47.585Z,38.54
2017-09-16T07:33:56.920Z,38.45
2017-09-16T07:35:05.933Z,37.88
2017-09-16T07:36:15.267Z,37.98
2017-09-16T07:37:23.966Z,37.7
2017-09-16T07:38:32.663Z,37.6
2017-09-16T07:39:41.994Z,36.84
2017-09-16T07:40:51.009Z,36.16
2017-09-16T07:42:00.024Z,35.7
2017-09-16T07:43:09.041Z,35.6
2017-09-16T07:44:18.380Z,35.62
2017-09-16T07:45:27.400Z,35.23
2017-09-16T07:46:36.416Z,34.96
2017-09-16T07:47:46.070Z,34.57
2017-09-16T07:48:56.069Z,34.28
2017-09-16T07:50:05.086Z,34.19
2017-09-16T07:51:14.104Z,34.38
2017-09-16T07:52:22.800Z,34.28
2017-09-16T07:53:31.817Z,34.38
2017-09-16T07:54:41.154Z,34.38
2017-09-16T07:55:50.811Z,34.38
2017-09-16T07:57:00.148Z,34.96
2017-09-16T07:58:08.847Z,34.86
2017-09-16T07:59:17.868Z,34.77
2017-09-16T08:00:26.886Z,34.84
2017-09-16T08:01:36.220Z,34.94
2017-09-16T08:02:45.238Z,34.38
2017-09-16T08:03:53.934Z,34.38
2017-09-16T08:05:02.634Z,33.8
2017-09-16T08:06:11.645Z,33.42
2017-09-16T08:07:20.661Z,33.23
2017-09-16T08:08:29.996Z,33.04
2017-09-16T08:09:39.333Z,32.96
2017-09-16T08:10:48.672Z,32.2
2017-09-16T08:11:58.007Z,31.71
2017-09-16T08:13:07.672Z,32.1
2017-09-16T08:14:16.696Z,32.2
2017-09-16T08:15:26.352Z,32.39
2017-09-16T08:16:35.368Z,32.18
2017-09-16T08:17:44.705Z,32.76
2017-09-16T08:18:54.040Z,32.96
2017-09-16T08:20:02.739Z,33.15
2017-09-16T08:21:11.757Z,33.33
2017-09-16T08:22:21.095Z,33.42
2017-09-16T08:23:29.796Z,33.91
2017-09-16T08:24:38.817Z,33.81
2017-09-16T08:25:47.833Z,34.38
2017-09-16T08:26:57.491Z,34.39
2017-09-16T08:28:06.510Z,34.57
2017-09-16T08:29:16.179Z,34.39
2017-09-16T08:30:25.196Z,34.69
2017-09-16T08:31:34.216Z,34.88
2017-09-16T08:32:43.234Z,34.88
2017-09-16T08:33:52.252Z,35.54
2017-09-16T08:35:01.588Z,35.25
2017-09-16T08:36:10.608Z,35.35
2017-09-16T08:37:19.626Z,35.83
2017-09-16T08:38:28.323Z,35.83
2017-09-16T08:39:37.659Z,36.32
2017-09-16T08:40:46.678Z,36.4
2017-09-16T08:41:56.021Z,35.62
2017-09-16T08:43:05.360Z,35.64
2017-09-16T08:44:14.376Z,36.3
2017-09-16T08:45:24.035Z,35.62
2017-09-16T08:46:33.053Z,35.72
2017-09-16T08:47:41.753Z,35.91
2017-09-16T08:48:51.416Z,36
2017-09-16T08:50:00.431Z,36.3
2017-09-16T08:51:09.452Z,36.3
2017-09-16T08:52:18.813Z,36
2017-09-16T08:53:27.491Z,36.4
2017-09-16T08:54:36.506Z,36.3
2017-09-16T08:55:46.157Z,36.18
2017-09-16T08:56:55.174Z,36.38
2017-09-16T08:58:04.525Z,36.47
2017-09-16T08:59:13.540Z,36.38
2017-09-16T09:00:22.562Z,36.57
2017-09-16T09:01:31.895Z,36.28
2017-09-16T09:02:41.554Z,36.47
2017-09-16T09:03:50.890Z,36.18
2017-09-16T09:05:00.550Z,36.38
2017-09-16T09:06:10.205Z,36.66
2017-09-16T09:07:19.221Z,36.47
2017-09-16T09:08:28.876Z,36.76
2017-09-16T09:09:37.573Z,36.57
2017-09-16T09:10:46.917Z,36.66
2017-09-16T09:11:55.613Z,36.57
2017-09-16T09:13:04.950Z,36.57
2017-09-16T09:14:13.650Z,36.76
2017-09-16T09:15:23.308Z,36.96
2017-09-16T09:16:32.964Z,36.57
2017-09-16T09:17:41.980Z,36.66
2017-09-16T09:18:50.679Z,36.86
2017-09-16T09:20:00.333Z,36.47
2017-09-16T09:21:09.670Z,36.38
2017-09-16T09:22:19.009Z,36.18
2017-09-16T09:23:28.024Z,36.28
2017-09-16T09:24:37.701Z,36.1
2017-09-16T09:25:46.398Z,36
2017-09-16T09:26:56.053Z,36.1
2017-09-16T09:28:05.388Z,35.72
2017-09-16T09:29:14.406Z,35.72
2017-09-16T09:30:24.382Z,35.52
2017-09-16T09:31:33.717Z,35.72
2017-09-16T09:32:42.737Z,36
2017-09-16T09:33:51.755Z,35.91
2017-09-16T09:35:00.775Z,35.42
2017-09-16T09:36:09.471Z,35.44
2017-09-16T09:37:18.487Z,34.38
2017-09-16T09:38:27.824Z,33.04
2017-09-16T09:39:37.160Z,32.68
2017-09-16T09:40:46.497Z,32.59
2017-09-16T09:41:55.515Z,33.07
2017-09-16T09:43:04.857Z,33.46
2017-09-16T09:44:13.868Z,33.64
2017-09-16T09:45:23.213Z,33.81
2017-09-16T09:46:32.549Z,32.86
2017-09-16T09:47:41.565Z,31.44
2017-09-16T09:48:51.232Z,29.43
2017-09-16T09:50:00.893Z,28.09
2017-09-16T09:51:09.594Z,26.48
2017-09-16T09:52:18.619Z,26.1
2017-09-16T09:53:27.638Z,26.4
2017-09-16T09:54:36.657Z,25.34
2017-09-16T09:55:45.992Z,24.77
2017-09-16T09:56:55.656Z,23.91
2017-09-16T09:58:04.994Z,23.34
2017-09-16T09:59:14.330Z,22.77
2017-09-16T10:00:23.030Z,23.05
2017-09-16T10:01:32.367Z,23.63
2017-09-16T10:02:41.387Z,24.39
2017-09-16T10:03:50.724Z,25.25
2017-09-16T10:04:59.425Z,25.43
2017-09-16T10:06:08.766Z,25.73
2017-09-16T10:07:18.105Z,26.79
2017-09-16T10:08:27.766Z,27.16
2017-09-16T10:09:36.802Z,27.73
2017-09-16T10:10:46.461Z,28.4
2017-09-16T10:11:55.162Z,28.97
2017-09-16T10:13:04.510Z,29.15
2017-09-16T10:14:13.850Z,30.01
2017-09-16T10:15:22.870Z,29.72
2017-09-16T10:16:31.568Z,29.91
2017-09-16T10:17:40.905Z,28.86
2017-09-16T10:18:50.247Z,28.39
2017-09-16T10:19:59.585Z,27.54
2017-09-16T10:21:08.933Z,26.97
2017-09-16T10:22:17.952Z,26.87
2017-09-16T10:23:26.972Z,27.16
2017-09-16T10:24:35.998Z,26.78
2017-09-16T10:25:45.665Z,26.2
2017-09-16T10:26:54.687Z,25.07
2017-09-16T10:28:04.029Z,24.88
2017-09-16T10:29:13.047Z,25.26
2017-09-16T10:30:21.747Z,26.12
2017-09-16T10:31:30.768Z,26.2
2017-09-16T10:32:39.786Z,25.25
2017-09-16T10:33:49.123Z,23.91
2017-09-16T10:34:58.142Z,22.47
2017-09-16T10:36:07.192Z,21.33
2017-09-16T10:37:16.214Z,20.66
2017-09-16T10:38:24.915Z,19.3
2017-09-16T10:39:34.252Z,18.44
2017-09-16T10:40:43.271Z,18.06
2017-09-16T10:41:52.292Z,17.58
2017-09-16T10:43:01.318Z,17.21
2017-09-16T10:44:10.662Z,16.91
2017-09-16T10:45:19.684Z,17.39
2017-09-16T10:46:28.388Z,18.17
2017-09-16T10:47:37.091Z,19.02
2017-09-16T10:48:46.755Z,20.18
2017-09-16T10:49:56.420Z,21.14
2017-09-16T10:51:05.764Z,21.91
2017-09-16T10:52:14.787Z,21.99
2017-09-16T10:53:24.132Z,22.66
2017-09-16T10:54:33.153Z,22.17
2017-09-16T10:55:42.497Z,21.12
2017-09-16T10:56:51.520Z,20.17
2017-09-16T10:58:00.223Z,19.31
2017-09-16T10:59:09.564Z,18.83
2017-09-16T11:00:19.226Z,18.35
2017-09-16T11:01:28.566Z,18.15
2017-09-16T11:02:38.229Z,17.86
2017-09-16T11:03:47.254Z,17.48
2017-09-16T11:04:55.960Z,17
2017-09-16T11:06:04.989Z,16.42
2017-09-16T11:07:14.333Z,16.42
2017-09-16T11:08:23.356Z,16.62
2017-09-16T11:09:32.376Z,16.33
2017-09-16T11:10:41.405Z,16.14
2017-09-16T11:11:51.067Z,15.75
2017-09-16T11:13:00.406Z,14.87
2017-09-16T11:14:09.429Z,14.39
2017-09-16T11:15:18.134Z,13.61
2017-09-16T11:16:27.194Z,13.53
2017-09-16T11:17:36.542Z,13.43
2017-09-16T11:18:45.566Z,13.13
2017-09-16T11:19:54.589Z,13.24
2017-09-16T11:21:03.614Z,13.93
2017-09-16T11:22:12.957Z,15.19
2017-09-16T11:23:21.982Z,15.36
2017-09-16T11:24:31.006Z,15.07
2017-09-16T11:25:40.034Z,14.58
2017-09-16T11:26:49.698Z,13.71
2017-09-16T11:27:58.723Z,13.23
2017-09-16T11:29:07.749Z,13.24
2017-09-16T11:30:16.775Z,12.55
2017-09-16T11:31:26.146Z,12.26
2017-09-16T11:32:35.809Z,11.87
2017-09-16T11:33:44.834Z,11.78
2017-09-16T11:34:54.179Z,12.07
2017-09-16T11:36:03.523Z,12.46
2017-09-16T11:37:12.868Z,13.14
2017-09-16T11:38:21.894Z,13.72
2017-09-16T11:39:30.916Z,14.49
2017-09-16T11:40:40.264Z,15.17
2017-09-16T11:41:49.607Z,15.07
2017-09-16T11:42:58.311Z,14.78
2017-09-16T11:44:08.297Z,14.49
2017-09-16T11:45:17.639Z,14.4
2017-09-16T11:46:26.343Z,15.19
2017-09-16T11:47:35.682Z,15.47
2017-09-16T11:48:44.704Z,16.43
2017-09-16T11:49:54.368Z,17.39
2017-09-16T11:51:04.032Z,18.16
2017-09-16T11:52:13.053Z,18.83
2017-09-16T11:53:22.077Z,19.9
2017-09-16T11:54:31.745Z,20.66
2017-09-16T11:55:41.412Z,20.94
2017-09-16T11:56:51.078Z,21.81
2017-09-16T11:58:00.416Z,22.27
2017-09-16T11:59:09.765Z,22.85
2017-09-16T12:00:19.430Z,23.34
2017-09-16T12:01:28.451Z,23.91
2017-09-16T12:02:37.803Z,24.98
2017-09-16T12:03:47.461Z,25.15
2017-09-16T12:04:56.800Z,25.63
2017-09-16T12:06:06.462Z,26.01
2017-09-16T12:07:15.805Z,26.5
2017-09-16T12:08:25.145Z,27.06
2017-09-16T12:09:34.496Z,27.16
2017-09-16T12:10:44.163Z,27.15
2017-09-16T12:11:53.188Z,27.73
2017-09-16T12:13:01.884Z,28.02
2017-09-16T12:14:10.904Z,28.69
2017-09-16T12:15:19.929Z,28.68
2017-09-16T12:16:29.276Z,28.88
2017-09-16T12:17:38.293Z,29.44
2017-09-16T12:18:46.994Z,29.25
2017-09-16T12:19:56.335Z,29.83
2017-09-16T12:21:05.670Z,30.11
2017-09-16T12:22:14.688Z,30.3
2017-09-16T12:23:24.029Z,30.21
2017-09-16T12:24:33.691Z,30.77
2017-09-16T12:25:42.392Z,30.87
2017-09-16T12:26:51.410Z,30.68
2017-09-16T12:28:00.753Z,30.97
2017-09-16T12:29:10.088Z,31.16
2017-09-16T12:30:19.107Z,31.26
2017-09-16T12:31:28.127Z,31.44
2017-09-16T12:32:36.830Z,31.44
2017-09-16T12:33:45.850Z,31.44
2017-09-16T12:34:55.188Z,31.74
2017-09-16T12:36:04.528Z,32.02
2017-09-16T12:37:13.869Z,32.02
2017-09-16T12:38:23.848Z,31.92
2017-09-16T12:39:33.506Z,32.12
2017-09-16T12:40:42.842Z,32.31
2017-09-16T12:41:52.182Z,32.41
2017-09-16T12:43:01.519Z,32.41
2017-09-16T12:44:10.857Z,32.7
2017-09-16T12:45:20.204Z,32.89
2017-09-16T12:46:29.541Z,32.79
2017-09-16T12:47:38.880Z,32.87
2017-09-16T12:48:47.583Z,32.87
2017-09-16T12:49:56.279Z,33.07
2017-09-16T12:51:05.618Z,33.26
2017-09-16T12:52:14.634Z,33.07
2017-09-16T12:53:23.973Z,33.26
2017-09-16T12:54:33.314Z,33.07
2017-09-16T12:55:42.334Z,33.26
2017-09-16T12:56:51.674Z,33.17
2017-09-16T12:58:01.026Z,33.46
2017-09-16T12:59:10.046Z,33.46
2017-09-16T13:00:19.384Z,33.26
2017-09-16T13:01:28.403Z,33.46
2017-09-16T13:02:37.425Z,33.56
2017-09-16T13:03:46.767Z,33.36
2017-09-16T13:04:56.135Z,33.65
2017-09-16T13:06:05.155Z,33.46
2017-09-16T13:07:14.812Z,33.65
2017-09-16T13:08:23.851Z,33.75
2017-09-16T13:09:33.188Z,33.83
2017-09-16T13:10:41.889Z,33.83
2017-09-16T13:11:50.588Z,33.92
2017-09-16T13:12:59.925Z,33.92
2017-09-16T13:14:08.623Z,34.22
2017-09-16T13:15:18.282Z,34.31
2017-09-16T13:16:27.941Z,34.31
2017-09-16T13:17:37.919Z,34.31
2017-09-16T13:18:47.257Z,34.31
2017-09-16T13:19:55.955Z,34.59
2017-09-16T13:21:04.976Z,34.39
2017-09-16T13:22:13.995Z,34.78
2017-09-16T13:23:23.012Z,34.97
2017-09-16T13:24:32.031Z,35.07
2017-09-16T13:25:41.052Z,35.17
2017-09-16T13:26:50.391Z,35.27
2017-09-16T13:27:59.411Z,35.17
2017-09-16T13:29:08.428Z,35.17
2017-09-16T13:30:17.446Z,35.25
2017-09-16T13:31:26.792Z,35.56
2017-09-16T13:32:36.133Z,35.27
2017-09-16T13:33:45.486Z,35.27
2017-09-16T13:34:54.828Z,35.07
2017-09-16T13:36:03.848Z,34.97
2017-09-16T13:37:12.868Z,35.56
2017-09-16T13:38:21.885Z,35.44
2017-09-16T13:39:31.228Z,35.44
2017-09-16T13:40:39.926Z,35.73
2017-09-16T13:41:49.274Z,35.64
2017-09-16T13:42:57.973Z,35.64
2017-09-16T13:44:07.956Z,35.93
2017-09-16T13:45:16.983Z,35.73
2017-09-16T13:46:26.328Z,35.83
2017-09-16T13:47:35.664Z,35.83
2017-09-16T13:48:45.008Z,35.93
2017-09-16T13:49:54.345Z,35.83
2017-09-16T13:51:03.364Z,35.93
2017-09-16T13:52:12.700Z,35.93
2017-09-16T13:53:22.046Z,35.83
2017-09-16T13:54:31.385Z,35.73
2017-09-16T13:55:40.724Z,35.93
2017-09-16T13:56:50.065Z,35.83
2017-09-16T13:58:00.041Z,36.12
2017-09-16T13:59:10.017Z,35.73
2017-09-16T14:00:19.356Z,36.32
2017-09-16T14:01:28.697Z,35.64
2017-09-16T14:02:38.032Z,36.32
2017-09-16T14:03:47.696Z,36.22
2017-09-16T14:04:56.392Z,36.32
2017-09-16T14:06:06.057Z,35.64
2017-09-16T14:07:15.744Z,35.54
2017-09-16T14:08:25.404Z,36.32
2017-09-16T14:09:34.423Z,36.12
2017-09-16T14:10:43.441Z,35.64
2017-09-16T14:11:52.470Z,35.93
2017-09-16T14:13:01.809Z,36.12
2017-09-16T14:14:10.828Z,36.12
2017-09-16T14:15:20.164Z,36.02
2017-09-16T14:16:29.180Z,36.12
2017-09-16T14:17:38.518Z,36.22
2017-09-16T14:18:47.536Z,36.02
2017-09-16T14:19:56.878Z,36.02
2017-09-16T14:21:06.536Z,36.41
2017-09-16T14:22:15.875Z,36.12
2017-09-16T14:23:24.573Z,36.02
2017-09-16T14:24:33.594Z,36.4
2017-09-16T14:25:42.933Z,36.2
2017-09-16T14:26:51.965Z,36.4
2017-09-16T14:28:00.980Z,36.4
2017-09-16T14:29:10.317Z,36.58
2017-09-16T14:30:19.660Z,36.4
2017-09-16T14:31:28.682Z,36.49
2017-09-16T14:32:37.696Z,36.78
2017-09-16T14:33:46.397Z,36.98
2017-09-16T14:34:55.730Z,36.58
2017-09-16T14:36:05.066Z,37.36
2017-09-16T14:37:14.404Z,37.26
2017-09-16T14:38:24.066Z,37.24
2017-09-16T14:39:33.086Z,37.46
2017-09-16T14:40:42.739Z,37.24
2017-09-16T14:41:51.437Z,37.15
2017-09-16T14:43:00.458Z,37.34
2017-09-16T14:44:09.162Z,36.96
2017-09-16T14:45:18.182Z,37.15
2017-09-16T14:46:26.879Z,37.24
2017-09-16T14:47:35.898Z,37.05
2017-09-16T14:48:45.876Z,37.15
2017-09-16T14:49:54.576Z,37.05
2017-09-16T14:51:03.595Z,37.44
2017-09-16T14:52:12.937Z,37.15
2017-09-16T14:53:21.958Z,37.44
2017-09-16T14:54:31.291Z,37.44